Time;durP1;ratioP1;P1;durP2;ratioP2;P2;SDS_P1;SDS_P2;PMS_P1;PMS_P2;Temp;Humidity;BMP_temperature;BMP_pressure;BME280_temperature;BME280_humidity;BME280_pressure;Samples;Min_cycle;Max_cycle;Signal;HPM_P1;HPM_P2
2023/07/12 00:00:03;;;;;;;6.47;1.15;;;;;;;;;;5149022;27;20054;-64
2023/07/12 00:02:30;;;;;;;5.63;1.45;;;;;;;;;;5146896;27;20408;-64
2023/07/12 00:04:58;;;;;;;3.25;1.30;;;;;;;;;;5125759;27;20051;-64
2023/07/12 00:07:26;;;;;;;4.07;1.35;;;;;;;;;;5146782;27;20062;-64
2023/07/12 00:09:53;;;;;;;3.25;1.30;;;;;;;;;;5140818;27;20046;-64
2023/07/12 00:12:20;;;;;;;2.75;1.20;;;;;;;;;;5137084;27;20401;-64
2023/07/12 00:14:47;;;;;;;2.35;0.88;;;;;;;;;;5145453;27;20058;-64
2023/07/12 00:17:15;;;;;;;3.10;1.17;;;;;;;;;;5137855;27;20370;-63
2023/07/12 00:19:42;;;;;;;4.45;1.33;;;;;;;;;;5146612;27;20504;-64
2023/07/12 00:22:11;;;;;;;3.90;1.20;;;;;;;;;;5137283;27;20061;-63
2023/07/12 00:24:39;;;;;;;7.10;1.50;;;;;;;;;;5135140;27;20420;-64
2023/07/12 00:27:06;;;;;;;1.98;1.10;;;;;;;;;;5145354;27;20043;-64
2023/07/12 00:29:33;;;;;;;5.97;1.35;;;;;;;;;;5144854;27;20039;-64
2023/07/12 00:32:01;;;;;;;4.22;1.40;;;;;;;;;;5141145;27;20047;-63
2023/07/12 00:34:28;;;;;;;3.38;1.33;;;;;;;;;;5144983;27;20057;-64
2023/07/12 00:36:55;;;;;;;3.60;1.33;;;;;;;;;;5136744;27;20498;-64
2023/07/12 00:39:24;;;;;;;4.88;1.33;;;;;;;;;;5144102;27;20054;-64
2023/07/12 00:41:56;;;;;;;6.57;1.63;;;;;;;;;;5144651;27;20122;-64
2023/07/12 00:44:24;;;;;;;6.45;1.75;;;;;;;;;;5144672;27;20054;-64
2023/07/12 00:46:53;;;;;;;4.82;1.25;;;;;;;;;;5142677;27;20047;-64
2023/07/12 00:49:21;;;;;;;4.28;1.50;;;;;;;;;;5145872;27;20043;-64
2023/07/12 00:51:50;;;;;;;4.03;1.48;;;;;;;;;;5148921;27;20405;-63
2023/07/12 00:54:19;;;;;;;3.53;1.33;;;;;;;;;;5119314;27;20446;-63
2023/07/12 00:56:48;;;;;;;3.33;1.30;;;;;;;;;;5148394;27;20076;-64
2023/07/12 00:59:17;;;;;;;5.22;1.40;;;;;;;;;;5144809;27;20038;-64
2023/07/12 01:01:46;;;;;;;3.30;1.30;;;;;;;;;;5147226;27;20536;-64
2023/07/12 01:04:17;;;;;;;4.97;1.27;;;;;;;;;;5138063;27;20055;-64
2023/07/12 01:06:44;;;;;;;5.40;1.30;;;;;;;;;;5143842;27;20058;-63
2023/07/12 01:09:13;;;;;;;6.10;1.35;;;;;;;;;;5143250;27;20537;-64
2023/07/12 01:11:41;;;;;;;3.88;1.10;;;;;;;;;;5140486;27;20632;-64
2023/07/12 01:14:12;;;;;;;3.55;1.30;;;;;;;;;;5134920;27;20061;-63
2023/07/12 01:16:40;;;;;;;3.90;1.10;;;;;;;;;;5146428;27;20047;-64
2023/07/12 01:19:07;;;;;;;2.72;1.42;;;;;;;;;;5138392;27;20043;-63
2023/07/12 01:21:38;;;;;;;5.10;1.50;;;;;;;;;;5136103;27;20068;-64
2023/07/12 01:24:05;;;;;;;7.50;1.52;;;;;;;;;;5140480;27;20043;-64
2023/07/12 01:26:34;;;;;;;3.95;1.50;;;;;;;;;;5140141;27;20130;-63
2023/07/12 01:29:02;;;;;;;8.27;1.48;;;;;;;;;;5139963;27;20943;-64
2023/07/12 01:31:30;;;;;;;4.70;1.42;;;;;;;;;;5146460;27;20043;-64
2023/07/12 01:33:57;;;;;;;5.65;2.00;;;;;;;;;;5126313;27;20047;-64
2023/07/12 01:36:25;;;;;;;4.47;1.70;;;;;;;;;;5142474;27;20050;-64
2023/07/12 01:38:55;;;;;;;3.80;1.75;;;;;;;;;;5139208;27;20130;-63
2023/07/12 01:41:22;;;;;;;5.32;1.40;;;;;;;;;;5147282;27;20038;-64
2023/07/12 01:43:50;;;;;;;8.93;1.73;;;;;;;;;;5142518;27;20063;-63
2023/07/12 01:46:17;;;;;;;7.75;1.88;;;;;;;;;;5145229;27;20564;-64
2023/07/12 01:48:44;;;;;;;8.68;2.00;;;;;;;;;;5144468;27;20034;-64
2023/07/12 01:51:12;;;;;;;5.53;1.40;;;;;;;;;;5144686;27;20054;-64
2023/07/12 01:53:40;;;;;;;5.50;1.60;;;;;;;;;;5141361;27;20070;-64
2023/07/12 01:56:09;;;;;;;4.47;1.63;;;;;;;;;;5143172;27;20130;-63
2023/07/12 01:58:36;;;;;;;3.63;1.33;;;;;;;;;;5143691;27;20046;-64
2023/07/12 02:01:04;;;;;;;5.10;1.70;;;;;;;;;;5138955;27;20505;-64
2023/07/12 02:03:31;;;;;;;7.03;1.63;;;;;;;;;;5140325;27;20061;-64
2023/07/12 02:05:58;;;;;;;5.75;1.90;;;;;;;;;;5144605;27;20042;-64
2023/07/12 02:08:26;;;;;;;5.85;1.75;;;;;;;;;;5143237;27;20058;-64
2023/07/12 02:10:53;;;;;;;12.15;2.42;;;;;;;;;;5145191;27;20051;-64
2023/07/12 02:13:23;;;;;;;11.77;2.00;;;;;;;;;;5140537;27;20046;-64
2023/07/12 02:15:51;;;;;;;8.43;2.13;;;;;;;;;;5142442;27;20055;-63
2023/07/12 02:18:19;;;;;;;6.32;1.73;;;;;;;;;;5145697;27;20051;-63
2023/07/12 02:20:46;;;;;;;8.48;1.85;;;;;;;;;;5144984;27;20529;-64
2023/07/12 02:23:13;;;;;;;6.70;1.83;;;;;;;;;;5135153;27;20582;-64
2023/07/12 02:25:41;;;;;;;10.00;2.13;;;;;;;;;;5141566;27;20394;-63
2023/07/12 02:28:08;;;;;;;9.82;1.90;;;;;;;;;;5147443;27;20046;-64
2023/07/12 02:30:38;;;;;;;8.35;2.15;;;;;;;;;;5140919;27;20509;-63
2023/07/12 02:33:05;;;;;;;10.82;1.85;;;;;;;;;;5146883;27;20047;-63
2023/07/12 02:35:33;;;;;;;11.23;2.35;;;;;;;;;;5142522;27;20459;-64
2023/07/12 02:38:00;;;;;;;9.88;2.40;;;;;;;;;;5141485;27;20051;-63
2023/07/12 02:40:28;;;;;;;11.18;1.85;;;;;;;;;;5137740;27;20051;-64
2023/07/12 02:42:56;;;;;;;9.35;2.15;;;;;;;;;;5141883;27;20091;-64
2023/07/12 02:45:23;;;;;;;9.70;2.10;;;;;;;;;;5141816;27;20049;-64
2023/07/12 02:47:52;;;;;;;12.40;2.00;;;;;;;;;;5141914;27;20047;-64
2023/07/12 02:50:19;;;;;;;7.82;1.92;;;;;;;;;;5140566;27;20125;-63
2023/07/12 02:52:47;;;;;;;7.13;2.20;;;;;;;;;;5146952;27;20084;-64
2023/07/12 02:55:14;;;;;;;8.02;2.10;;;;;;;;;;5144232;27;20042;-63
2023/07/12 02:57:41;;;;;;;8.32;2.10;;;;;;;;;;5144453;27;20051;-64
2023/07/12 03:00:09;;;;;;;9.32;2.00;;;;;;;;;;5147330;27;20473;-64
2023/07/12 03:02:36;;;;;;;5.80;1.92;;;;;;;;;;5142306;27;20042;-63
2023/07/12 03:05:05;;;;;;;8.68;1.98;;;;;;;;;;5140474;27;20039;-64
2023/07/12 03:07:34;;;;;;;9.50;2.38;;;;;;;;;;5149371;27;20051;-64
2023/07/12 03:10:02;;;;;;;8.77;2.40;;;;;;;;;;5140150;27;20047;-64
2023/07/12 03:12:29;;;;;;;9.18;2.50;;;;;;;;;;5131128;27;20055;-64
2023/07/12 03:14:56;;;;;;;6.65;2.03;;;;;;;;;;5144621;27;20043;-64
2023/07/12 03:17:23;;;;;;;5.70;2.10;;;;;;;;;;5122691;27;20062;-64
2023/07/12 03:19:51;;;;;;;9.55;2.20;;;;;;;;;;5148932;27;20050;-63
2023/07/12 03:22:19;;;;;;;9.68;2.50;;;;;;;;;;5147564;27;20054;-64
2023/07/12 03:24:46;;;;;;;10.50;2.17;;;;;;;;;;5142009;27;20063;-64
2023/07/12 03:27:14;;;;;;;12.23;2.22;;;;;;;;;;5135936;27;20055;-64
2023/07/12 03:29:41;;;;;;;13.02;3.70;;;;;;;;;;5145591;27;20054;-64
2023/07/12 03:32:09;;;;;;;7.60;2.10;;;;;;;;;;5150205;27;20046;-64
2023/07/12 03:34:36;;;;;;;6.93;2.25;;;;;;;;;;5143096;27;20039;-63
2023/07/12 03:37:03;;;;;;;10.18;2.40;;;;;;;;;;5137114;27;20054;-64
2023/07/12 03:39:32;;;;;;;9.27;2.20;;;;;;;;;;5140081;27;20059;-64
2023/07/12 03:41:59;;;;;;;4.75;2.08;;;;;;;;;;5144301;27;20058;-63
2023/07/12 03:44:26;;;;;;;9.57;2.17;;;;;;;;;;5136191;27;20058;-64
2023/07/12 03:46:54;;;;;;;9.15;2.08;;;;;;;;;;5137654;27;20039;-63
2023/07/12 03:49:21;;;;;;;9.45;2.10;;;;;;;;;;5138709;27;20035;-64
2023/07/12 03:51:48;;;;;;;15.23;2.33;;;;;;;;;;5141469;27;20054;-64
2023/07/12 03:54:15;;;;;;;9.70;2.13;;;;;;;;;;5145841;27;20053;-64
2023/07/12 03:56:44;;;;;;;10.55;2.35;;;;;;;;;;5142239;27;20242;-63
2023/07/12 03:59:11;;;;;;;10.57;2.00;;;;;;;;;;5138000;27;20666;-64
2023/07/12 04:01:39;;;;;;;9.18;1.85;;;;;;;;;;5121614;27;20063;-64
2023/07/12 04:04:07;;;;;;;10.35;1.65;;;;;;;;;;5147798;27;20042;-64
2023/07/12 04:06:34;;;;;;;8.18;2.00;;;;;;;;;;5146829;27;20049;-64
2023/07/12 04:09:02;;;;;;;9.40;2.30;;;;;;;;;;5146583;27;20053;-64
2023/07/12 04:11:30;;;;;;;10.65;2.15;;;;;;;;;;5141892;27;20069;-64
2023/07/12 04:14:01;;;;;;;11.98;2.05;;;;;;;;;;5146339;27;20057;-63
2023/07/12 04:16:29;;;;;;;8.68;2.13;;;;;;;;;;5146531;27;20182;-64
2023/07/12 04:18:56;;;;;;;11.68;2.58;;;;;;;;;;5142765;27;20045;-65
2023/07/12 04:21:24;;;;;;;10.68;2.10;;;;;;;;;;5129640;27;20043;-66
2023/07/12 04:23:52;;;;;;;12.18;2.13;;;;;;;;;;5149569;27;20043;-68
2023/07/12 04:26:20;;;;;;;10.93;2.10;;;;;;;;;;5125472;27;20078;-67
2023/07/12 04:28:49;;;;;;;11.13;2.08;;;;;;;;;;5147449;27;20049;-67
2023/07/12 04:31:18;;;;;;;12.60;2.75;;;;;;;;;;5142604;27;20046;-67
2023/07/12 04:33:45;;;;;;;7.53;1.67;;;;;;;;;;5141468;27;20042;-66
2023/07/12 04:36:13;;;;;;;8.50;2.15;;;;;;;;;;5142480;27;20072;-66
2023/07/12 04:38:41;;;;;;;10.80;2.40;;;;;;;;;;5118709;27;20039;-67
2023/07/12 04:41:08;;;;;;;12.52;2.38;;;;;;;;;;5148965;27;20047;-66
2023/07/12 04:43:36;;;;;;;10.98;2.58;;;;;;;;;;5130053;27;20054;-66
2023/07/12 04:46:03;;;;;;;16.15;2.42;;;;;;;;;;5144579;27;20055;-67
2023/07/12 04:48:33;;;;;;;10.85;2.65;;;;;;;;;;5139013;27;20055;-65
2023/07/12 04:51:00;;;;;;;11.00;2.35;;;;;;;;;;5138374;27;20061;-65
2023/07/12 04:53:27;;;;;;;12.13;2.80;;;;;;;;;;5129172;27;20544;-65
2023/07/12 04:55:55;;;;;;;14.05;2.80;;;;;;;;;;5143776;27;20051;-65
2023/07/12 04:58:22;;;;;;;17.33;3.17;;;;;;;;;;5140959;27;20051;-66
2023/07/12 05:00:49;;;;;;;17.48;3.17;;;;;;;;;;5127775;27;20153;-65
2023/07/12 05:03:17;;;;;;;11.15;2.42;;;;;;;;;;5147979;27;20043;-64
2023/07/12 05:05:45;;;;;;;10.43;2.78;;;;;;;;;;5148021;27;20396;-66
2023/07/12 05:08:13;;;;;;;20.70;3.70;;;;;;;;;;5127132;27;20421;-66
2023/07/12 05:10:40;;;;;;;20.05;4.03;;;;;;;;;;5138846;27;20035;-68
2023/07/12 05:13:07;;;;;;;12.07;2.95;;;;;;;;;;5145397;27;20490;-67
2023/07/12 05:15:35;;;;;;;14.07;3.33;;;;;;;;;;5146452;27;20317;-67
2023/07/12 05:18:02;;;;;;;20.67;4.07;;;;;;;;;;5147865;27;20045;-66
2023/07/12 05:20:29;;;;;;;22.02;3.55;;;;;;;;;;5123498;27;20043;-68
2023/07/12 05:22:58;;;;;;;14.23;3.05;;;;;;;;;;5138905;27;20047;-71
2023/07/12 05:25:25;;;;;;;9.43;2.72;;;;;;;;;;5121287;27;20414;-72
2023/07/12 05:27:52;;;;;;;10.05;2.97;;;;;;;;;;5119154;27;20055;-69
2023/07/12 05:30:20;;;;;;;12.95;2.47;;;;;;;;;;5122554;27;20054;-72
2023/07/12 05:32:47;;;;;;;12.05;2.78;;;;;;;;;;5128229;27;20057;-70
2023/07/12 05:35:14;;;;;;;9.18;2.53;;;;;;;;;;5140873;27;20059;-67
2023/07/12 05:37:41;;;;;;;12.55;3.00;;;;;;;;;;5146694;27;20074;-66
2023/07/12 05:40:10;;;;;;;11.90;3.47;;;;;;;;;;5137471;27;20492;-66
2023/07/12 05:42:40;;;;;;;10.10;2.90;;;;;;;;;;5146973;27;20082;-66
2023/07/12 05:45:08;;;;;;;13.65;3.35;;;;;;;;;;5145608;27;21104;-66
2023/07/12 05:47:35;;;;;;;10.68;2.63;;;;;;;;;;5134862;27;21476;-66
2023/07/12 05:50:03;;;;;;;9.93;2.50;;;;;;;;;;5139182;27;20538;-64
2023/07/12 05:52:30;;;;;;;12.15;2.47;;;;;;;;;;5142222;27;20062;-64
2023/07/12 05:54:57;;;;;;;11.43;2.92;;;;;;;;;;5140777;27;20047;-65
2023/07/12 05:57:26;;;;;;;20.20;3.20;;;;;;;;;;5142731;27;20419;-66
2023/07/12 05:59:53;;;;;;;16.00;3.33;;;;;;;;;;5141636;27;20061;-66
2023/07/12 06:02:20;;;;;;;11.90;2.47;;;;;;;;;;5142308;27;20051;-66
2023/07/12 06:04:47;;;;;;;7.70;2.72;;;;;;;;;;5147407;27;20034;-65
2023/07/12 06:07:15;;;;;;;8.90;2.75;;;;;;;;;;5148520;27;20054;-65
2023/07/12 06:09:42;;;;;;;15.80;3.35;;;;;;;;;;5145359;27;20134;-65
2023/07/12 06:12:10;;;;;;;12.25;3.10;;;;;;;;;;5142475;27;20548;-65
2023/07/12 06:14:39;;;;;;;22.33;3.58;;;;;;;;;;5142618;27;20051;-65
2023/07/12 06:17:09;;;;;;;7.57;3.00;;;;;;;;;;5144951;27;20386;-65
2023/07/12 06:19:36;;;;;;;13.45;3.30;;;;;;;;;;5138612;27;20039;-65
2023/07/12 06:22:03;;;;;;;13.55;3.60;;;;;;;;;;5142554;27;20046;-64
2023/07/12 06:24:30;;;;;;;18.60;4.35;;;;;;;;;;5138264;27;20073;-65
2023/07/12 06:26:58;;;;;;;14.05;3.67;;;;;;;;;;5147984;27;20517;-64
2023/07/12 06:29:25;;;;;;;12.43;3.67;;;;;;;;;;5144233;27;20050;-65
2023/07/12 06:31:54;;;;;;;17.08;3.60;;;;;;;;;;5148015;27;20047;-64
2023/07/12 06:34:22;;;;;;;13.40;3.88;;;;;;;;;;5147705;27;20127;-65
2023/07/12 06:36:49;;;;;;;9.20;2.97;;;;;;;;;;5152326;27;20058;-64
2023/07/12 06:39:17;;;;;;;11.10;3.08;;;;;;;;;;5145079;27;20137;-65
2023/07/12 06:41:44;;;;;;;11.57;3.08;;;;;;;;;;5150778;27;20074;-65
2023/07/12 06:44:11;;;;;;;15.40;3.10;;;;;;;;;;5150898;27;20512;-65
2023/07/12 06:46:38;;;;;;;11.38;2.97;;;;;;;;;;5146452;27;20047;-65
2023/07/12 06:49:07;;;;;;;14.30;2.83;;;;;;;;;;5145588;27;20135;-64
2023/07/12 06:51:34;;;;;;;14.85;3.33;;;;;;;;;;5151622;27;20068;-65
2023/07/12 06:54:02;;;;;;;12.52;2.80;;;;;;;;;;5143828;27;20078;-68
2023/07/12 06:56:29;;;;;;;9.80;2.85;;;;;;;;;;5146808;27;20083;-66
2023/07/12 06:58:56;;;;;;;9.85;1.88;;;;;;;;;;5146810;27;20064;-66
2023/07/12 07:01:23;;;;;;;4.63;1.60;;;;;;;;;;5128508;27;20517;-65
2023/07/12 07:03:51;;;;;;;7.00;1.35;;;;;;;;;;5148057;27;20050;-66
2023/07/12 07:06:19;;;;;;;4.88;1.30;;;;;;;;;;5147629;27;20062;-65
2023/07/12 07:08:47;;;;;;;2.65;1.02;;;;;;;;;;5143360;27;20073;-66
2023/07/12 07:11:14;;;;;;;6.95;1.15;;;;;;;;;;5144554;27;20039;-65
2023/07/12 07:13:41;;;;;;;7.15;1.23;;;;;;;;;;5129769;27;20058;-65
2023/07/12 07:16:09;;;;;;;5.13;1.30;;;;;;;;;;5142382;27;20043;-66
2023/07/12 07:18:36;;;;;;;2.47;1.40;;;;;;;;;;5146547;27;20058;-65
2023/07/12 07:21:04;;;;;;;8.27;2.45;;;;;;;;;;5149891;27;20059;-65
2023/07/12 07:23:33;;;;;;;7.88;2.22;;;;;;;;;;5149572;27;20374;-65
2023/07/12 07:26:02;;;;;;;10.43;2.40;;;;;;;;;;5148143;27;20054;-65
2023/07/12 07:28:29;;;;;;;9.43;2.45;;;;;;;;;;5144711;27;20131;-65
2023/07/12 07:30:57;;;;;;;8.80;2.90;;;;;;;;;;5146963;27;20405;-65
2023/07/12 07:33:25;;;;;;;12.55;3.10;;;;;;;;;;5128272;27;20055;-65
2023/07/12 07:35:52;;;;;;;10.55;3.13;;;;;;;;;;5144431;27;20480;-65
2023/07/12 07:38:25;;;;;;;8.07;2.67;;;;;;;;;;5152606;27;20046;-66
2023/07/12 07:40:52;;;;;;;;;;;;;;;;;;5151552;27;20102;-65
2023/07/12 07:43:21;;;;;;;8.70;2.22;;;;;;;;;;5151782;27;19926;-66
2023/07/12 07:45:48;;;;;;;7.70;2.08;;;;;;;;;;5145629;27;20039;-66
2023/07/12 07:48:15;;;;;;;6.45;1.80;;;;;;;;;;5147995;27;20050;-66
2023/07/12 07:50:43;;;;;;;6.63;2.08;;;;;;;;;;5138681;27;20042;-66
2023/07/12 07:53:11;;;;;;;9.35;2.10;;;;;;;;;;5148417;27;20043;-66
2023/07/12 07:55:42;;;;;;;5.13;2.03;;;;;;;;;;5142484;27;20501;-66
2023/07/12 07:58:12;;;;;;;7.50;2.38;;;;;;;;;;5150007;27;20047;-67
2023/07/12 08:00:40;;;;;;;5.82;2.10;;;;;;;;;;5145790;27;20034;-67
2023/07/12 08:03:08;;;;;;;8.98;1.90;;;;;;;;;;5136573;27;20047;-67
2023/07/12 08:05:35;;;;;;;8.80;1.88;;;;;;;;;;5146041;27;20055;-66
2023/07/12 08:08:03;;;;;;;7.43;1.92;;;;;;;;;;5139558;27;20058;-66
2023/07/12 08:10:31;;;;;;;5.25;1.83;;;;;;;;;;5138628;27;20054;-65
2023/07/12 08:12:59;;;;;;;7.65;2.13;;;;;;;;;;5145008;27;20501;-66
2023/07/12 08:15:27;;;;;;;4.90;1.60;;;;;;;;;;5149746;27;20061;-67
2023/07/12 08:17:56;;;;;;;5.65;1.63;;;;;;;;;;5142761;27;20050;-67
2023/07/12 08:20:24;;;;;;;4.68;1.40;;;;;;;;;;5138807;27;20814;-67
2023/07/12 08:22:52;;;;;;;5.72;1.70;;;;;;;;;;5125225;27;20057;-67
2023/07/12 08:25:19;;;;;;;3.15;1.25;;;;;;;;;;5143525;27;20034;-67
2023/07/12 08:27:46;;;;;;;4.00;1.25;;;;;;;;;;5151156;27;20053;-66
2023/07/12 08:30:14;;;;;;;3.10;1.40;;;;;;;;;;5146470;27;20130;-66
2023/07/12 08:32:41;;;;;;;4.05;1.17;;;;;;;;;;5125474;27;20051;-66
2023/07/12 08:35:11;;;;;;;3.50;1.17;;;;;;;;;;5146611;27;20160;-66
2023/07/12 08:37:38;;;;;;;3.63;1.38;;;;;;;;;;5147189;27;20074;-66
2023/07/12 08:40:06;;;;;;;3.03;1.40;;;;;;;;;;5142931;27;20046;-66
2023/07/12 08:42:36;;;;;;;3.88;1.35;;;;;;;;;;5147063;27;20078;-66
2023/07/12 08:45:14;;;;;;;3.22;1.35;;;;;;;;;;5142588;27;20486;-66
2023/07/12 08:47:41;;;;;;;4.80;1.40;;;;;;;;;;5142135;27;20490;-67
2023/07/12 08:50:13;;;;;;;3.00;1.50;;;;;;;;;;5143549;27;20074;-66
2023/07/12 08:52:41;;;;;;;3.83;1.38;;;;;;;;;;5146605;27;20072;-66
2023/07/12 08:55:12;;;;;;;2.67;1.30;;;;;;;;;;5142810;27;20609;-66
2023/07/12 08:57:41;;;;;;;3.67;1.20;;;;;;;;;;5138560;27;20070;-66
2023/07/12 09:00:10;;;;;;;4.28;1.48;;;;;;;;;;5138840;27;20046;-66
2023/07/12 09:02:38;;;;;;;5.38;1.75;;;;;;;;;;5136072;27;20054;-66
2023/07/12 09:05:13;;;;;;;5.18;1.30;;;;;;;;;;5122383;27;20050;-66
2023/07/12 09:07:43;;;;;;;5.20;1.33;;;;;;;;;;5146657;27;20055;-66
2023/07/12 09:10:10;;;;;;;4.43;1.40;;;;;;;;;;5147263;27;20054;-66
2023/07/12 09:12:38;;;;;;;4.18;1.38;;;;;;;;;;5145145;27;20054;-64
2023/07/12 09:15:06;;;;;;;3.50;1.27;;;;;;;;;;5140368;27;20134;-65
2023/07/12 09:17:43;;;;;;;4.78;1.40;;;;;;;;;;5145265;27;20042;-65
2023/07/12 09:20:23;;;;;;;5.53;1.30;;;;;;;;;;5140483;27;20069;-66
2023/07/12 09:22:50;;;;;;;1.65;1.20;;;;;;;;;;5125572;27;20099;-66
2023/07/12 09:25:21;;;;;;;4.28;1.08;;;;;;;;;;5149201;27;20043;-66
2023/07/12 09:27:48;;;;;;;6.32;1.20;;;;;;;;;;5142342;27;20046;-65
2023/07/12 09:30:19;;;;;;;3.65;0.98;;;;;;;;;;5147778;27;20415;-66
2023/07/12 09:32:48;;;;;;;1.90;0.73;;;;;;;;;;5123662;27;20058;-66
2023/07/12 09:35:29;;;;;;;2.90;0.95;;;;;;;;;;5146802;27;20125;-66
2023/07/12 09:38:00;;;;;;;7.97;1.15;;;;;;;;;;5147243;27;20046;-66
2023/07/12 09:40:30;;;;;;;1.67;0.95;;;;;;;;;;5135984;27;20053;-66
2023/07/12 09:42:58;;;;;;;5.78;0.90;;;;;;;;;;5141700;27;20050;-66
2023/07/12 09:45:28;;;;;;;2.40;1.02;;;;;;;;;;5139880;27;20050;-65
2023/07/12 09:48:01;;;;;;;5.10;0.95;;;;;;;;;;5141786;27;20418;-66
2023/07/12 09:50:35;;;;;;;3.25;0.73;;;;;;;;;;5136884;27;20058;-65
2023/07/12 09:53:05;;;;;;;2.83;1.13;;;;;;;;;;5133829;27;20486;-65
2023/07/12 09:55:36;;;;;;;2.50;0.63;;;;;;;;;;5143809;27;20043;-66
2023/07/12 09:58:09;;;;;;;2.42;0.95;;;;;;;;;;5124678;27;20047;-66
2023/07/12 10:00:39;;;;;;;4.45;0.75;;;;;;;;;;5118848;27;20061;-66
2023/07/12 10:03:13;;;;;;;3.15;0.90;;;;;;;;;;5144907;27;20051;-66
2023/07/12 10:05:45;;;;;;;2.17;0.68;;;;;;;;;;5137758;27;20183;-66
2023/07/12 10:08:14;;;;;;;2.00;0.60;;;;;;;;;;5137715;27;20123;-66
2023/07/12 10:10:46;;;;;;;4.60;0.77;;;;;;;;;;5142914;27;20075;-66
2023/07/12 10:13:21;;;;;;;2.80;0.70;;;;;;;;;;5127928;27;20050;-66
2023/07/12 10:15:50;;;;;;;3.38;0.70;;;;;;;;;;5148571;27;20054;-65
2023/07/12 10:18:18;;;;;;;5.10;0.95;;;;;;;;;;5144778;27;20127;-66
2023/07/12 10:20:47;;;;;;;3.13;0.82;;;;;;;;;;5140304;27;20404;-65
2023/07/12 10:23:15;;;;;;;3.83;0.80;;;;;;;;;;5151715;27;20457;-66
2023/07/12 10:25:46;;;;;;;1.50;0.63;;;;;;;;;;5152018;27;20061;-65
2023/07/12 10:28:19;;;;;;;1.73;0.80;;;;;;;;;;5155975;27;20149;-66
2023/07/12 10:30:48;;;;;;;1.77;0.52;;;;;;;;;;5152243;27;20058;-66
2023/07/12 10:33:20;;;;;;;2.85;0.68;;;;;;;;;;5147679;27;20043;-66
2023/07/12 10:35:50;;;;;;;2.05;0.70;;;;;;;;;;5151283;27;20441;-65
2023/07/12 10:38:18;;;;;;;1.95;0.52;;;;;;;;;;5147835;27;20049;-65
2023/07/12 10:40:50;;;;;;;3.40;0.65;;;;;;;;;;5152605;27;20515;-65
2023/07/12 10:43:20;;;;;;;2.00;0.70;;;;;;;;;;5149364;27;20386;-65
2023/07/12 10:45:50;;;;;;;1.38;0.52;;;;;;;;;;5153350;27;20478;-65
2023/07/12 10:48:21;;;;;;;4.28;1.00;;;;;;;;;;5155021;27;20069;-65
2023/07/12 10:50:51;;;;;;;2.30;0.68;;;;;;;;;;5148230;27;20055;-66
2023/07/12 10:53:21;;;;;;;1.88;0.60;;;;;;;;;;5142565;27;20051;-65
2023/07/12 10:56:03;;;;;;;3.47;0.88;;;;;;;;;;5148194;27;20123;-66
2023/07/12 10:58:45;;;;;;;4.03;0.80;;;;;;;;;;5147226;27;20545;-65
2023/07/12 11:01:36;;;;;;;2.63;0.70;;;;;;;;;;5132820;27;20054;-65
2023/07/12 11:04:07;;;;;;;5.10;1.25;;;;;;;;;;5151304;27;20045;-65
2023/07/12 11:06:36;;;;;;;1.15;0.77;;;;;;;;;;5148296;27;20050;-65
2023/07/12 11:09:08;;;;;;;2.85;0.70;;;;;;;;;;5148194;27;20053;-65
2023/07/12 11:11:42;;;;;;;2.28;0.82;;;;;;;;;;5151612;27;20069;-65
2023/07/12 11:14:17;;;;;;;1.40;0.50;;;;;;;;;;5148116;27;20046;-66
2023/07/12 11:16:46;;;;;;;2.28;0.80;;;;;;;;;;5147326;27;20039;-65
2023/07/12 11:19:37;;;;;;;1.92;0.70;;;;;;;;;;5147127;27;20077;-66
2023/07/12 11:22:12;;;;;;;3.28;0.93;;;;;;;;;;5144020;27;20043;-65
2023/07/12 11:24:40;;;;;;;1.25;0.60;;;;;;;;;;5145166;27;20641;-65
2023/07/12 11:27:10;;;;;;;2.88;0.68;;;;;;;;;;5144753;27;20043;-66
2023/07/12 11:29:39;;;;;;;5.13;0.70;;;;;;;;;;5144375;27;20061;-64
2023/07/12 11:32:12;;;;;;;2.63;0.70;;;;;;;;;;5149235;27;20156;-65
2023/07/12 11:34:41;;;;;;;3.92;1.25;;;;;;;;;;5144867;27;20162;-66
2023/07/12 11:37:16;;;;;;;2.75;1.15;;;;;;;;;;5149611;27;20058;-66
2023/07/12 11:39:46;;;;;;;4.05;0.75;;;;;;;;;;5146845;27;20289;-65
2023/07/12 11:42:23;;;;;;;4.82;0.70;;;;;;;;;;5148309;27;20085;-65
2023/07/12 11:44:59;;;;;;;2.17;0.60;;;;;;;;;;5134684;27;20393;-65
2023/07/12 11:47:27;;;;;;;2.58;0.80;;;;;;;;;;5143753;27;20038;-65
2023/07/12 11:49:57;;;;;;;1.50;0.77;;;;;;;;;;5148593;27;20057;-65
2023/07/12 11:52:27;;;;;;;3.53;0.90;;;;;;;;;;5146775;27;20489;-66
2023/07/12 11:54:55;;;;;;;2.63;0.73;;;;;;;;;;5149304;27;20043;-65
2023/07/12 11:57:22;;;;;;;2.42;0.80;;;;;;;;;;5142597;27;20039;-66
2023/07/12 11:59:50;;;;;;;3.67;0.82;;;;;;;;;;5150518;27;20485;-66
2023/07/12 12:02:19;;;;;;;1.30;0.60;;;;;;;;;;5146365;27;20046;-65
2023/07/12 12:04:48;;;;;;;3.20;0.73;;;;;;;;;;5146552;27;20505;-65
2023/07/12 12:07:21;;;;;;;1.85;0.73;;;;;;;;;;5143327;27;20065;-65
2023/07/12 12:09:50;;;;;;;1.38;0.60;;;;;;;;;;5128103;27;20074;-65
2023/07/12 12:12:19;;;;;;;2.25;0.63;;;;;;;;;;5128414;27;20038;-66
2023/07/12 12:14:48;;;;;;;3.15;1.02;;;;;;;;;;5147421;27;20481;-65
2023/07/12 12:17:17;;;;;;;1.98;0.65;;;;;;;;;;5143339;27;20043;-65
2023/07/12 12:19:49;;;;;;;5.55;0.95;;;;;;;;;;5143209;27;20050;-65
2023/07/12 12:22:17;;;;;;;1.08;0.57;;;;;;;;;;5138563;27;20047;-66
2023/07/12 12:24:48;;;;;;;1.35;0.50;;;;;;;;;;5141597;27;20066;-66
2023/07/12 12:27:21;;;;;;;1.80;0.80;;;;;;;;;;5125277;27;20073;-65
2023/07/12 12:29:48;;;;;;;3.22;0.70;;;;;;;;;;5149490;27;20042;-65
2023/07/12 12:32:17;;;;;;;4.63;0.60;;;;;;;;;;5142154;27;20046;-66
2023/07/12 12:34:47;;;;;;;1.52;0.68;;;;;;;;;;5145403;27;20070;-65
2023/07/12 12:37:17;;;;;;;2.70;0.90;;;;;;;;;;5147565;27;20093;-66
2023/07/12 12:39:57;;;;;;;3.85;1.00;;;;;;;;;;5144853;27;20042;-66
2023/07/12 12:42:26;;;;;;;2.13;0.80;;;;;;;;;;5145731;27;20046;-66
2023/07/12 12:44:55;;;;;;;1.40;0.80;;;;;;;;;;5140363;27;20042;-66
2023/07/12 12:47:23;;;;;;;2.55;0.85;;;;;;;;;;5136848;27;20043;-66
2023/07/12 12:49:51;;;;;;;2.72;0.98;;;;;;;;;;5145435;27;20051;-66
2023/07/12 12:52:23;;;;;;;2.60;1.00;;;;;;;;;;5148329;27;20057;-67
2023/07/12 12:54:50;;;;;;;2.58;1.00;;;;;;;;;;5147165;27;20043;-69
2023/07/12 12:57:17;;;;;;;3.92;0.80;;;;;;;;;;5135627;27;20108;-68
2023/07/12 12:59:46;;;;;;;6.10;1.30;;;;;;;;;;5138016;27;20350;-68
2023/07/12 13:02:14;;;;;;;2.05;0.90;;;;;;;;;;5143848;27;20057;-68
2023/07/12 13:04:41;;;;;;;2.55;0.95;;;;;;;;;;5148990;27;20046;-68
2023/07/12 13:07:16;;;;;;;2.13;1.00;;;;;;;;;;5149245;27;20061;-64
2023/07/12 13:09:44;;;;;;;2.47;0.80;;;;;;;;;;5143208;27;20043;-64
2023/07/12 13:12:16;;;;;;;1.95;0.82;;;;;;;;;;5148506;27;20103;-65
2023/07/12 13:14:43;;;;;;;1.48;0.70;;;;;;;;;;5146133;27;20054;-64
2023/07/12 13:17:15;;;;;;;1.52;0.90;;;;;;;;;;5147220;27;20057;-65
2023/07/12 13:19:42;;;;;;;0.63;0.60;;;;;;;;;;5151409;27;20538;-64
2023/07/12 13:22:12;;;;;;;1.63;0.98;;;;;;;;;;5150155;27;20062;-64
2023/07/12 13:24:39;;;;;;;1.65;0.70;;;;;;;;;;5126784;27;20165;-64
2023/07/12 13:27:10;;;;;;;1.55;0.77;;;;;;;;;;5140884;27;20537;-63
2023/07/12 13:29:37;;;;;;;4.22;0.93;;;;;;;;;;5144087;27;20043;-64
2023/07/12 13:32:05;;;;;;;2.00;1.15;;;;;;;;;;5143054;27;20057;-65
2023/07/12 13:34:33;;;;;;;2.35;0.80;;;;;;;;;;5121615;27;20055;-64
2023/07/12 13:37:00;;;;;;;3.03;0.80;;;;;;;;;;5142946;27;20051;-64
2023/07/12 13:39:30;;;;;;;4.05;0.90;;;;;;;;;;5144308;27;20050;-65
2023/07/12 13:41:58;;;;;;;1.80;0.90;;;;;;;;;;5139576;27;20050;-64
2023/07/12 13:44:26;;;;;;;2.92;0.93;;;;;;;;;;5143341;27;20054;-64
2023/07/12 13:46:53;;;;;;;2.10;0.70;;;;;;;;;;5143682;27;20355;-64
2023/07/12 13:49:21;;;;;;;1.35;0.77;;;;;;;;;;5139153;27;20400;-65
2023/07/12 13:51:50;;;;;;;3.05;1.00;;;;;;;;;;5128300;27;20050;-64
2023/07/12 13:54:19;;;;;;;5.05;0.98;;;;;;;;;;5142557;27;20043;-64
2023/07/12 13:56:47;;;;;;;5.72;1.02;;;;;;;;;;5139173;27;20049;-65
2023/07/12 13:59:14;;;;;;;2.85;1.05;;;;;;;;;;5122362;27;20421;-64
2023/07/12 14:01:41;;;;;;;2.45;0.85;;;;;;;;;;5143675;27;20043;-64
2023/07/12 14:04:11;;;;;;;2.08;1.00;;;;;;;;;;5148617;27;20050;-65
2023/07/12 14:06:39;;;;;;;2.03;0.68;;;;;;;;;;5137663;27;20051;-64
2023/07/12 14:09:09;;;;;;;2.05;0.80;;;;;;;;;;5143558;27;20047;-65
2023/07/12 14:11:36;;;;;;;1.48;0.80;;;;;;;;;;5138098;27;20043;-65
2023/07/12 14:14:03;;;;;;;2.50;0.98;;;;;;;;;;5145964;27;20043;-65
2023/07/12 14:16:33;;;;;;;2.20;0.98;;;;;;;;;;5140881;27;20051;-64
2023/07/12 14:19:00;;;;;;;1.30;0.90;;;;;;;;;;5146984;27;20047;-66
2023/07/12 14:21:28;;;;;;;4.20;1.08;;;;;;;;;;5136992;27;20054;-65
2023/07/12 14:23:55;;;;;;;1.88;1.00;;;;;;;;;;5146104;27;20492;-65
2023/07/12 14:26:25;;;;;;;3.70;1.17;;;;;;;;;;5138072;27;20043;-64
2023/07/12 14:28:54;;;;;;;3.50;1.10;;;;;;;;;;5143107;27;20058;-64
2023/07/12 14:31:22;;;;;;;1.10;0.80;;;;;;;;;;5145738;27;20412;-65
2023/07/12 14:33:50;;;;;;;3.83;1.27;;;;;;;;;;5145365;27;20039;-65
2023/07/12 14:36:18;;;;;;;1.73;1.13;;;;;;;;;;5145444;27;20082;-65
2023/07/12 14:38:45;;;;;;;1.75;1.30;;;;;;;;;;5143471;27;20401;-65
2023/07/12 14:41:18;;;;;;;1.95;1.17;;;;;;;;;;5143430;27;20043;-64
2023/07/12 14:43:45;;;;;;;;;;;;;;;;;;5145683;27;20075;-65
2023/07/12 14:46:13;;;;;;;4.88;1.60;;;;;;;;;;5147501;27;19919;-65
2023/07/12 14:48:41;;;;;;;3.38;1.33;;;;;;;;;;5147187;27;20053;-65